Time;durP1;ratioP1;P1;durP2;ratioP2;P2;SDS_P1;SDS_P2;PMS_P1;PMS_P2;Temp;Humidity;BMP_temperature;BMP_pressure;BME280_temperature;BME280_humidity;BME280_pressure;Samples;Min_cycle;Max_cycle;Signal;HPM_P1;HPM_P2
2022/07/14 00:01:45;;;;;;;1.70;1.60;;;25.00;73.50;;;;;;5114471;28;20019;-74
2022/07/14 00:04:11;;;;;;;1.67;1.58;;;25.00;73.60;;;;;;5092456;28;20423;-74
2022/07/14 00:06:37;;;;;;;2.03;1.60;;;25.00;73.70;;;;;;5093909;28;20024;-74
2022/07/14 00:09:03;;;;;;;1.83;1.73;;;25.00;73.70;;;;;;5093961;28;20073;-74
2022/07/14 00:11:29;;;;;;;2.70;1.50;;;25.00;73.30;;;;;;5093814;28;20500;-74
2022/07/14 00:13:56;;;;;;;1.85;1.50;;;25.10;73.50;;;;;;5093760;28;20046;-74
2022/07/14 00:16:22;;;;;;;1.70;1.50;;;25.00;73.50;;;;;;5093856;28;20020;-74
2022/07/14 00:18:48;;;;;;;5.30;1.70;;;25.00;73.80;;;;;;5094013;28;20020;-74
2022/07/14 00:21:15;;;;;;;1.92;1.55;;;25.00;73.70;;;;;;5092242;28;20028;-74
2022/07/14 00:23:46;;;;;;;2.65;1.40;;;25.00;73.80;;;;;;5093700;28;20028;-74
2022/07/14 00:26:12;;;;;;;1.23;1.23;;;25.00;74.00;;;;;;5093605;28;20034;-74
2022/07/14 00:28:39;;;;;;;1.77;1.45;;;24.90;74.10;;;;;;5093426;28;20020;-74
2022/07/14 00:31:12;;;;;;;2.30;1.55;;;24.90;74.40;;;;;;5092220;28;20024;-74
2022/07/14 00:33:39;;;;;;;3.30;1.80;;;24.90;74.40;;;;;;5093554;28;20399;-74
2022/07/14 00:36:06;;;;;;;2.63;1.30;;;24.80;74.50;;;;;;5093394;28;20050;-74
2022/07/14 00:38:32;;;;;;;2.63;1.40;;;24.80;74.40;;;;;;5092188;28;20028;-74
2022/07/14 00:40:58;;;;;;;3.35;1.70;;;24.90;74.40;;;;;;5093550;28;20028;-74
2022/07/14 00:43:24;;;;;;;1.80;1.70;;;24.90;74.80;;;;;;5093320;28;20022;-74
2022/07/14 00:45:50;;;;;;;1.90;1.73;;;24.90;74.70;;;;;;5093451;28;20111;-74
2022/07/14 00:48:19;;;;;;;1.65;1.55;;;24.90;74.60;;;;;;5093011;28;20452;-74
2022/07/14 00:50:46;;;;;;;2.92;1.58;;;24.90;74.60;;;;;;5093097;28;20114;-74
2022/07/14 00:53:13;;;;;;;3.63;1.40;;;25.00;74.70;;;;;;5093275;28;20077;-74
2022/07/14 00:55:40;;;;;;;1.45;1.35;;;24.90;74.70;;;;;;5092097;28;20475;-74
2022/07/14 00:58:06;;;;;;;3.33;1.92;;;24.90;74.90;;;;;;5093156;28;20016;-74
2022/07/14 01:00:32;;;;;;;1.70;1.60;;;24.80;74.80;;;;;;5093223;28;20479;-74
2022/07/14 01:02:58;;;;;;;1.38;1.38;;;24.80;75.00;;;;;;5091705;28;20052;-74
2022/07/14 01:05:23;;;;;;;2.65;1.20;;;24.80;75.40;;;;;;5093106;28;20020;-73
2022/07/14 01:07:49;;;;;;;1.95;1.30;;;24.70;75.70;;;;;;5093059;28;20052;-74
2022/07/14 01:10:15;;;;;;;1.83;1.67;;;24.80;75.90;;;;;;5093124;28;20514;-74
2022/07/14 01:12:46;;;;;;;2.45;1.30;;;24.80;75.90;;;;;;5093304;28;20024;-74
2022/07/14 01:15:14;;;;;;;2.97;1.45;;;24.80;75.90;;;;;;5093127;28;20048;-74
2022/07/14 01:17:40;;;;;;;1.65;1.55;;;24.80;75.80;;;;;;5093150;28;20076;-74
2022/07/14 01:20:07;;;;;;;1.83;1.73;;;24.80;76.00;;;;;;5093277;28;20049;-74
2022/07/14 01:22:32;;;;;;;2.30;1.88;;;24.90;75.80;;;;;;5091585;28;20501;-74
2022/07/14 01:24:58;;;;;;;1.48;1.48;;;24.90;76.00;;;;;;5093057;28;20028;-74
2022/07/14 01:27:24;;;;;;;1.70;1.60;;;24.90;75.80;;;;;;5093187;28;20055;-74
2022/07/14 01:29:50;;;;;;;2.10;1.38;;;24.90;75.80;;;;;;5092695;28;20058;-74
2022/07/14 01:32:16;;;;;;;1.98;1.20;;;24.90;75.90;;;;;;5091631;28;20495;-74
2022/07/14 01:34:42;;;;;;;1.80;1.60;;;24.80;76.10;;;;;;5092854;28;20076;-74
2022/07/14 01:37:08;;;;;;;1.58;1.48;;;24.70;76.50;;;;;;5092816;28;20107;-74
2022/07/14 01:39:34;;;;;;;1.50;1.40;;;24.60;76.70;;;;;;5092892;28;20028;-74
2022/07/14 01:41:59;;;;;;;1.80;1.70;;;24.60;77.50;;;;;;5093110;28;20448;-74
2022/07/14 01:44:25;;;;;;;1.67;1.58;;;24.60;77.80;;;;;;5092738;28;20032;-73
2022/07/14 01:46:51;;;;;;;1.52;1.42;;;24.60;77.90;;;;;;5092702;28;20020;-74
2022/07/14 01:49:17;;;;;;;1.45;1.35;;;24.60;78.00;;;;;;5092785;28;20032;-74
2022/07/14 01:51:42;;;;;;;3.70;1.40;;;24.60;78.10;;;;;;5092993;28;20103;-74
2022/07/14 01:54:08;;;;;;;2.40;1.80;;;24.60;78.20;;;;;;5092757;28;20448;-74
2022/07/14 01:56:41;;;;;;;1.92;1.50;;;24.50;78.20;;;;;;5092692;28;20099;-73
2022/07/14 01:59:07;;;;;;;1.50;1.40;;;24.50;78.40;;;;;;5093052;28;20028;-74
2022/07/14 02:01:40;;;;;;;1.23;1.23;;;24.60;78.60;;;;;;5096287;28;20425;-73
2022/07/14 02:04:08;;;;;;;3.95;1.20;;;24.50;78.40;;;;;;5094940;28;20056;-74
2022/07/14 02:06:34;;;;;;;1.35;1.33;;;24.60;78.50;;;;;;5095005;28;20365;-74
2022/07/14 02:09:00;;;;;;;1.88;1.27;;;24.60;78.70;;;;;;5095010;28;20106;-74
2022/07/14 02:14:10;;;;;;;2.42;1.10;;;24.60;78.70;;;;;;5096171;28;20085;-73
2022/07/14 02:16:37;;;;;;;2.08;1.92;;;24.60;78.50;;;;;;5096231;28;20028;-74
2022/07/14 02:19:03;;;;;;;1.58;1.48;;;24.60;78.40;;;;;;5096139;28;20091;-74
2022/07/14 02:21:29;;;;;;;3.15;1.58;;;24.60;78.60;;;;;;5094541;28;20496;-73
2022/07/14 02:23:56;;;;;;;2.70;1.45;;;24.60;78.60;;;;;;5095898;28;20020;-74
2022/07/14 02:26:23;;;;;;;1.60;1.50;;;24.60;78.60;;;;;;5095838;28;20020;-74
2022/07/14 02:28:49;;;;;;;1.50;1.40;;;24.60;78.60;;;;;;5095779;28;20028;-74
2022/07/14 02:31:15;;;;;;;2.05;1.95;;;24.60;78.40;;;;;;5095870;28;20036;-74
2022/07/14 02:33:41;;;;;;;1.48;1.42;;;24.60;78.50;;;;;;5095769;28;20100;-73
2022/07/14 02:36:07;;;;;;;1.50;1.40;;;24.60;78.50;;;;;;5095665;28;20107;-73
2022/07/14 02:38:34;;;;;;;1.60;1.30;;;24.60;78.80;;;;;;5095851;28;20095;-74
2022/07/14 02:41:00;;;;;;;4.40;1.60;;;24.50;78.60;;;;;;5094305;28;20121;-73
2022/07/14 02:43:26;;;;;;;1.63;1.52;;;24.50;79.00;;;;;;5094336;28;20028;-73
2022/07/14 02:45:52;;;;;;;2.20;1.50;;;24.50;79.30;;;;;;5095442;28;20036;-74
2022/07/14 02:48:18;;;;;;;1.27;1.27;;;24.40;79.50;;;;;;5095415;28;20464;-73
2022/07/14 02:50:44;;;;;;;1.40;1.35;;;24.40;79.50;;;;;;5094354;28;20387;-74
2022/07/14 02:53:09;;;;;;;1.20;1.20;;;24.50;79.70;;;;;;5095474;28;20028;-74
2022/07/14 02:55:36;;;;;;;1.52;1.42;;;24.50;79.60;;;;;;5094090;28;20024;-74
2022/07/14 02:58:03;;;;;;;2.92;1.42;;;24.50;80.00;;;;;;5093971;28;20115;-74
2022/07/14 03:00:30;;;;;;;2.03;1.70;;;24.50;80.10;;;;;;5094056;28;20042;-74
2022/07/14 03:02:57;;;;;;;1.20;1.20;;;24.50;80.00;;;;;;5104102;28;20548;-74
2022/07/14 03:05:23;;;;;;;3.00;1.17;;;24.50;80.00;;;;;;5115600;28;20039;-74
2022/07/14 03:07:49;;;;;;;2.60;1.30;;;24.50;80.00;;;;;;5115469;28;20111;-74
2022/07/14 03:10:15;;;;;;;2.85;1.33;;;24.50;80.10;;;;;;5115077;28;20376;-74
2022/07/14 03:12:41;;;;;;;1.10;1.00;;;24.50;80.20;;;;;;5115374;28;20110;-74
2022/07/14 03:15:07;;;;;;;1.20;1.20;;;24.50;80.10;;;;;;5097122;28;20019;-74
2022/07/14 03:17:33;;;;;;;1.73;1.50;;;24.50;80.20;;;;;;5115187;28;20110;-74
2022/07/14 03:20:00;;;;;;;1.38;1.27;;;24.50;80.30;;;;;;5115323;28;20027;-74
2022/07/14 03:22:26;;;;;;;1.80;1.65;;;24.60;80.20;;;;;;5115148;28;20046;-74
2022/07/14 03:24:52;;;;;;;7.40;1.40;;;24.40;80.10;;;;;;5096757;28;20036;-74
2022/07/14 03:27:18;;;;;;;1.35;1.33;;;24.50;79.90;;;;;;5115176;28;20518;-74
2022/07/14 03:29:44;;;;;;;1.45;1.45;;;24.60;80.00;;;;;;5115201;28;20032;-74
2022/07/14 03:32:10;;;;;;;1.50;1.40;;;24.50;79.70;;;;;;5096657;28;20493;-74
2022/07/14 03:34:35;;;;;;;1.95;1.27;;;24.60;79.90;;;;;;5115021;28;20479;-74
2022/07/14 03:37:04;;;;;;;1.48;1.38;;;24.60;79.90;;;;;;5114806;28;20012;-74
2022/07/14 03:39:30;;;;;;;1.38;1.38;;;24.50;79.90;;;;;;5114865;28;20019;-74
2022/07/14 03:41:56;;;;;;;2.88;1.45;;;24.50;80.20;;;;;;5096446;28;20027;-74
2022/07/14 03:44:21;;;;;;;1.25;1.25;;;24.50;80.20;;;;;;5114747;28;20011;-74
2022/07/14 03:46:47;;;;;;;2.28;1.50;;;24.50;80.50;;;;;;5096383;28;20020;-74
2022/07/14 03:49:13;;;;;;;1.42;1.30;;;24.50;80.30;;;;;;5114892;28;20052;-74
2022/07/14 03:51:43;;;;;;;5.90;1.35;;;24.50;80.40;;;;;;5114539;28;20637;-74
2022/07/14 03:54:09;;;;;;;1.50;1.40;;;24.40;80.50;;;;;;5114614;28;20027;-74
2022/07/14 03:56:36;;;;;;;1.55;1.45;;;24.40;80.30;;;;;;5114333;28;20095;-74
2022/07/14 03:59:03;;;;;;;1.50;1.40;;;24.50;80.50;;;;;;5114578;28;20022;-74
2022/07/14 04:01:29;;;;;;;1.50;1.40;;;24.40;80.60;;;;;;5114628;28;20478;-74
2022/07/14 04:03:55;;;;;;;2.78;1.50;;;24.40;80.60;;;;;;5114204;28;20054;-74
2022/07/14 04:06:23;;;;;;;1.40;1.40;;;24.40;80.50;;;;;;5096147;28;20482;-74
2022/07/14 04:08:49;;;;;;;1.83;1.73;;;24.30;81.30;;;;;;5114261;28;20024;-74
2022/07/14 04:11:15;;;;;;;4.07;1.23;;;24.30;81.90;;;;;;5114106;28;20038;-74
2022/07/14 04:13:41;;;;;;;3.22;1.52;;;24.30;82.00;;;;;;5114272;28;20482;-74
2022/07/14 04:16:07;;;;;;;3.35;1.40;;;24.30;82.20;;;;;;5114313;28;20027;-74
2022/07/14 04:18:33;;;;;;;1.05;1.05;;;24.30;82.50;;;;;;5114136;28;20028;-74
2022/07/14 04:20:58;;;;;;;1.80;1.50;;;24.20;82.00;;;;;;5114115;28;20031;-74
2022/07/14 04:23:24;;;;;;;1.42;1.33;;;24.30;83.00;;;;;;5113767;28;20035;-74
2022/07/14 04:25:50;;;;;;;1.40;1.05;;;24.30;82.50;;;;;;5114039;28;20030;-74
2022/07/14 04:28:16;;;;;;;1.77;1.67;;;24.40;82.40;;;;;;5113947;28;20031;-74
2022/07/14 04:30:42;;;;;;;1.67;1.25;;;24.40;82.10;;;;;;5114069;28;20107;-74
2022/07/14 04:33:09;;;;;;;3.40;1.23;;;24.40;81.80;;;;;;5113838;28;20051;-74
2022/07/14 04:35:36;;;;;;;1.27;1.15;;;24.50;81.50;;;;;;5113686;28;20044;-74
2022/07/14 04:38:02;;;;;;;1.70;1.30;;;24.50;81.60;;;;;;5113684;28;20016;-74
2022/07/14 04:40:28;;;;;;;1.38;1.38;;;24.50;81.30;;;;;;5113807;28;20034;-74
2022/07/14 04:42:53;;;;;;;3.90;1.63;;;24.50;81.00;;;;;;5113715;28;20027;-74
2022/07/14 04:45:20;;;;;;;1.80;1.60;;;24.60;81.30;;;;;;5113651;28;20020;-74
2022/07/14 04:47:46;;;;;;;1.67;1.30;;;24.50;81.80;;;;;;5095291;28;20399;-74
2022/07/14 04:52:56;;;;;;;6.85;1.52;;;24.50;81.10;;;;;;5113559;28;20026;-74
2022/07/14 04:55:28;;;;;;;1.20;1.20;;;24.60;81.30;;;;;;5113587;28;20106;-74
2022/07/14 04:57:53;;;;;;;1.90;1.80;;;24.50;81.30;;;;;;5094689;28;20026;-74
2022/07/14 05:00:19;;;;;;;1.67;1.52;;;24.60;81.70;;;;;;5113544;28;20032;-74
2022/07/14 05:02:45;;;;;;;2.05;1.27;;;24.60;81.50;;;;;;5113260;28;20130;-74
2022/07/14 05:05:11;;;;;;;4.28;1.50;;;24.70;81.00;;;;;;5113644;28;20111;-74
2022/07/14 05:07:37;;;;;;;4.00;1.55;;;24.70;81.50;;;;;;5113701;28;20019;-74
2022/07/14 05:10:04;;;;;;;1.58;1.48;;;24.70;81.20;;;;;;5095214;28;20035;-74
2022/07/14 05:12:30;;;;;;;1.75;1.50;;;24.70;81.00;;;;;;5095168;28;20023;-74
2022/07/14 05:14:56;;;;;;;2.85;1.52;;;24.80;81.00;;;;;;5113420;28;20395;-74
2022/07/14 05:17:22;;;;;;;2.15;1.20;;;24.90;81.00;;;;;;5105487;28;20024;-74
2022/07/14 05:19:49;;;;;;;2.38;1.27;;;24.90;80.70;;;;;;5094453;28;20376;-74
2022/07/14 05:22:15;;;;;;;2.65;1.63;;;25.00;80.70;;;;;;5113279;28;20019;-74
2022/07/14 05:24:41;;;;;;;2.00;1.90;;;24.90;81.10;;;;;;5113413;28;20031;-74
2022/07/14 05:27:07;;;;;;;2.28;1.45;;;24.90;81.20;;;;;;5092465;28;20118;-75
2022/07/14 05:29:33;;;;;;;1.98;1.50;;;25.00;81.00;;;;;;5113109;28;20059;-75
2022/07/14 05:31:58;;;;;;;5.60;1.50;;;25.00;81.10;;;;;;5113542;28;20016;-75
2022/07/14 05:34:24;;;;;;;1.77;1.40;;;25.10;81.40;;;;;;5096026;28;20019;-75
2022/07/14 05:36:50;;;;;;;6.25;1.80;;;25.20;81.60;;;;;;5117281;28;20020;-75
2022/07/14 05:39:16;;;;;;;3.55;2.10;;;25.20;81.40;;;;;;5117217;28;20027;-74
2022/07/14 05:41:41;;;;;;;6.22;1.45;;;25.30;81.40;;;;;;5098785;28;20032;-75
2022/07/14 05:44:08;;;;;;;2.60;1.92;;;25.30;81.60;;;;;;5117090;28;20024;-75
2022/07/14 05:46:33;;;;;;;2.15;1.48;;;25.30;81.60;;;;;;5116997;28;20068;-75
2022/07/14 05:49:00;;;;;;;3.97;1.35;;;25.40;81.10;;;;;;5098693;28;20110;-75
2022/07/14 05:51:26;;;;;;;2.08;1.60;;;25.40;81.10;;;;;;5116598;28;20034;-75
2022/07/14 05:53:52;;;;;;;1.77;1.65;;;25.50;81.20;;;;;;5116890;28;20023;-75
2022/07/14 05:56:17;;;;;;;4.97;1.42;;;25.60;81.10;;;;;;5116788;28;20386;-75
2022/07/14 05:58:45;;;;;;;5.70;1.90;;;25.60;81.00;;;;;;5116918;28;20153;-75
2022/07/14 06:01:12;;;;;;;4.78;1.88;;;25.70;81.00;;;;;;5117149;28;20107;-75
2022/07/14 06:03:38;;;;;;;1.67;1.40;;;25.70;81.10;;;;;;5116732;28;20050;-75
2022/07/14 06:06:08;;;;;;;1.52;1.42;;;25.70;81.00;;;;;;5098266;28;20028;-74
2022/07/14 06:08:34;;;;;;;3.28;2.17;;;25.80;81.20;;;;;;5116714;28;20432;-75
2022/07/14 06:11:02;;;;;;;3.25;1.50;;;25.80;81.00;;;;;;5116482;28;20084;-75
2022/07/14 06:13:30;;;;;;;8.75;2.13;;;25.90;81.00;;;;;;5116367;28;20106;-75
2022/07/14 06:15:59;;;;;;;5.10;1.60;;;25.90;81.00;;;;;;5116908;28;20024;-75
2022/07/14 06:18:26;;;;;;;2.05;1.60;;;26.00;80.80;;;;;;5116486;28;20394;-74
2022/07/14 06:20:52;;;;;;;1.52;1.40;;;26.10;80.80;;;;;;5116464;28;20023;-75
2022/07/14 06:23:18;;;;;;;2.47;1.40;;;26.20;80.50;;;;;;5116180;28;20504;-75
2022/07/14 06:25:43;;;;;;;7.60;1.98;;;26.20;80.40;;;;;;5097983;28;20020;-75
2022/07/14 06:28:09;;;;;;;1.92;1.63;;;26.30;80.70;;;;;;5116535;28;20115;-74
2022/07/14 06:30:35;;;;;;;1.38;1.13;;;26.40;81.00;;;;;;5116218;28;20375;-75
2022/07/14 06:33:01;;;;;;;3.10;1.40;;;26.30;80.60;;;;;;5098089;28;20047;-75
2022/07/14 06:35:27;;;;;;;3.35;1.50;;;26.40;80.50;;;;;;5098203;28;20082;-75
2022/07/14 06:37:54;;;;;;;6.60;1.50;;;26.50;80.90;;;;;;5116081;28;20016;-75
2022/07/14 06:40:21;;;;;;;1.40;1.30;;;26.50;80.50;;;;;;5115973;28;20027;-75
2022/07/14 06:42:47;;;;;;;1.80;1.65;;;26.60;79.90;;;;;;5115952;28;20034;-74
2022/07/14 06:45:13;;;;;;;2.88;1.40;;;26.60;80.50;;;;;;5115231;28;20042;-74
2022/07/14 06:47:40;;;;;;;4.65;1.60;;;26.70;82.00;;;;;;5115846;28;20028;-74
2022/07/14 06:50:06;;;;;;;3.08;1.55;;;26.80;82.20;;;;;;5115513;28;20028;-74
2022/07/14 06:52:33;;;;;;;1.35;1.25;;;26.90;82.50;;;;;;5097335;28;20055;-74
2022/07/14 06:55:00;;;;;;;2.22;1.27;;;27.00;83.60;;;;;;5115601;28;20035;-74
2022/07/14 06:57:26;;;;;;;1.88;1.73;;;27.10;83.10;;;;;;5115624;28;20024;-74
2022/07/14 06:59:52;;;;;;;2.75;1.52;;;27.10;75.10;;;;;;5115621;28;20074;-74
2022/07/14 07:02:19;;;;;;;3.28;1.67;;;27.20;77.20;;;;;;5115383;28;20050;-74
2022/07/14 07:04:47;;;;;;;2.22;1.67;;;27.20;76.40;;;;;;5097259;28;20142;-74
2022/07/14 07:07:13;;;;;;;1.90;1.15;;;27.30;74.60;;;;;;5115699;28;20023;-75
2022/07/14 07:09:38;;;;;;;5.68;1.88;;;27.30;75.30;;;;;;5115340;28;20107;-74
2022/07/14 07:12:05;;;;;;;1.40;1.30;;;27.30;72.20;;;;;;5115298;28;20132;-74
2022/07/14 07:14:30;;;;;;;4.05;1.77;;;27.40;73.10;;;;;;5115494;28;20479;-75
2022/07/14 07:16:57;;;;;;;4.18;1.40;;;27.40;73.10;;;;;;5097018;28;20115;-75
2022/07/14 07:19:22;;;;;;;2.55;1.40;;;27.50;71.90;;;;;;5115378;28;20022;-74
2022/07/14 07:21:48;;;;;;;5.45;1.17;;;27.60;72.20;;;;;;5114319;28;20118;-75
2022/07/14 07:24:14;;;;;;;3.85;1.50;;;27.70;72.00;;;;;;5111836;28;20023;-75
2022/07/14 07:26:41;;;;;;;3.53;1.30;;;27.70;73.10;;;;;;5111016;28;20028;-75
2022/07/14 07:29:07;;;;;;;6.05;1.40;;;27.80;73.80;;;;;;5111561;28;20024;-75
2022/07/14 07:31:34;;;;;;;1.60;1.50;;;27.80;73.20;;;;;;5111263;28;20079;-76
2022/07/14 07:34:00;;;;;;;4.95;1.67;;;27.90;71.00;;;;;;5110090;28;20024;-76
2022/07/14 07:36:26;;;;;;;3.72;1.73;;;27.90;71.20;;;;;;5109801;28;20024;-76
2022/07/14 07:38:52;;;;;;;2.33;1.40;;;27.80;69.00;;;;;;5110721;28;20024;-76
2022/07/14 07:41:18;;;;;;;5.18;1.83;;;27.90;70.80;;;;;;5109913;28;20481;-76
2022/07/14 07:43:44;;;;;;;4.93;1.50;;;27.90;71.00;;;;;;5092467;28;20024;-75
2022/07/14 07:46:09;;;;;;;4.95;1.88;;;28.00;70.00;;;;;;5109794;28;20020;-76
2022/07/14 07:48:35;;;;;;;2.97;1.88;;;28.00;71.10;;;;;;5091595;28;20031;-76
2022/07/14 07:51:02;;;;;;;4.88;1.60;;;28.10;72.10;;;;;;5110451;28;20059;-76
2022/07/14 07:53:27;;;;;;;2.97;1.67;;;28.20;71.50;;;;;;5091343;28;20398;-76
2022/07/14 07:55:56;;;;;;;9.07;2.28;;;28.20;72.60;;;;;;5092139;28;20026;-76
2022/07/14 07:58:22;;;;;;;7.93;1.70;;;28.30;72.00;;;;;;5113790;28;20394;-75
2022/07/14 08:00:49;;;;;;;6.03;1.95;;;28.30;72.80;;;;;;5114421;28;20060;-75
2022/07/14 08:03:15;;;;;;;3.35;2.10;;;28.40;72.00;;;;;;5114091;28;20406;-74
2022/07/14 08:05:41;;;;;;;2.35;1.70;;;28.40;68.70;;;;;;5106938;28;20031;-75
2022/07/14 08:08:07;;;;;;;2.53;1.50;;;28.50;68.30;;;;;;5109722;28;20460;-75
2022/07/14 08:10:33;;;;;;;5.38;2.75;;;28.50;68.40;;;;;;5110073;28;20115;-75
2022/07/14 08:12:59;;;;;;;2.00;1.80;;;28.50;64.30;;;;;;5109276;28;20475;-73
2022/07/14 08:15:25;;;;;;;1.70;1.40;;;28.60;63.40;;;;;;5091653;28;20020;-73
2022/07/14 08:17:51;;;;;;;1.20;1.10;;;28.60;64.00;;;;;;5073232;28;20046;-74
2022/07/14 08:20:19;;;;;;;4.70;1.50;;;28.60;64.30;;;;;;5088774;28;20107;-73
2022/07/14 08:22:45;;;;;;;1.20;1.10;;;28.60;64.80;;;;;;5089561;28;20084;-76
2022/07/14 08:25:11;;;;;;;2.08;1.38;;;28.60;64.50;;;;;;5070312;28;20027;-73
2022/07/14 08:27:40;;;;;;;4.15;1.38;;;28.70;66.00;;;;;;5090512;28;20024;-73
2022/07/14 08:30:07;;;;;;;6.82;1.52;;;28.70;64.50;;;;;;5077090;28;20506;-72
2022/07/14 08:32:38;;;;;;;2.67;1.30;;;28.80;66.40;;;;;;5113568;28;20007;-73
2022/07/14 08:35:09;;;;;;;3.13;1.63;;;28.70;64.00;;;;;;5113281;28;20106;-73
2022/07/14 08:37:35;;;;;;;4.40;1.52;;;28.80;65.10;;;;;;5113701;28;20030;-73
2022/07/14 08:40:06;;;;;;;3.45;1.50;;;28.80;66.00;;;;;;5113392;28;20036;-74
2022/07/14 08:42:35;;;;;;;5.90;2.00;;;28.80;66.30;;;;;;5094915;28;20031;-73
2022/07/14 08:45:07;;;;;;;7.65;1.98;;;28.80;65.10;;;;;;5113555;28;20104;-74
2022/07/14 08:47:34;;;;;;;8.70;2.10;;;28.80;65.70;;;;;;5113350;28;20033;-75
2022/07/14 08:50:02;;;;;;;6.22;1.75;;;28.70;65.00;;;;;;5113197;28;20024;-75
2022/07/14 08:52:27;;;;;;;4.85;1.88;;;28.70;65.40;;;;;;5113367;28;20073;-74
2022/07/14 08:54:54;;;;;;;1.58;1.48;;;28.80;67.10;;;;;;5113282;28;20023;-75
2022/07/14 08:57:19;;;;;;;6.20;2.47;;;28.90;67.50;;;;;;5095002;28;20019;-74
2022/07/14 08:59:45;;;;;;;5.22;2.05;;;28.90;67.00;;;;;;5113079;28;20489;-73
2022/07/14 09:02:11;;;;;;;9.75;2.22;;;28.90;66.10;;;;;;5113090;28;20055;-73
2022/07/14 09:04:36;;;;;;;1.98;1.77;;;29.00;67.30;;;;;;5113148;28;20077;-74
2022/07/14 09:07:02;;;;;;;2.15;2.05;;;29.00;66.50;;;;;;5113442;28;20443;-74
2022/07/14 09:09:34;;;;;;;3.70;2.13;;;29.00;65.80;;;;;;5097895;28;20038;-73
2022/07/14 09:12:08;;;;;;;6.22;1.80;;;29.10;63.40;;;;;;5117364;28;20057;-75
2022/07/14 09:17:25;;;;;;;2.45;1.88;;;29.10;64.60;;;;;;5117432;28;20058;-76
2022/07/14 09:20:09;;;;;;;4.15;1.63;;;29.20;64.90;;;;;;5098866;28;20031;-75
2022/07/14 09:22:40;;;;;;;3.35;1.90;;;29.30;64.20;;;;;;5099085;28;20032;-75
2022/07/14 09:25:08;;;;;;;3.05;1.55;;;29.40;64.80;;;;;;5099025;28;20073;-75
2022/07/14 09:27:35;;;;;;;2.97;1.77;;;29.50;64.30;;;;;;5113855;28;20024;-75
2022/07/14 09:30:03;;;;;;;3.40;2.00;;;29.70;62.60;;;;;;5112659;28;20139;-76
2022/07/14 09:32:40;;;;;;;2.47;1.42;;;29.70;60.40;;;;;;5100405;28;20020;-75
2022/07/14 09:35:06;;;;;;;1.80;1.60;;;29.80;59.80;;;;;;5116676;28;20024;-75
2022/07/14 09:37:32;;;;;;;5.45;1.45;;;29.70;59.40;;;;;;5116612;28;20048;-76
2022/07/14 09:39:59;;;;;;;2.25;1.50;;;29.80;59.00;;;;;;5116869;28;20031;-75
2022/07/14 09:42:46;;;;;;;3.70;1.73;;;29.80;56.70;;;;;;5116671;28;20030;-74
2022/07/14 09:45:14;;;;;;;9.57;1.60;;;29.70;58.30;;;;;;5116800;28;20115;-77
2022/07/14 09:48:07;;;;;;;3.25;1.58;;;30.00;58.80;;;;;;5116596;28;20024;-76
2022/07/14 09:50:57;;;;;;;5.78;1.63;;;30.10;56.50;;;;;;5098099;28;20114;-75
2022/07/14 09:53:30;;;;;;;2.10;1.95;;;29.90;55.70;;;;;;5098554;28;20496;-76
2022/07/14 09:56:03;;;;;;;1.60;1.50;;;29.90;57.80;;;;;;5116475;28;20019;-75
2022/07/14 09:58:44;;;;;;;2.15;1.73;;;30.10;56.50;;;;;;5116329;28;20480;-76
2022/07/14 10:01:14;;;;;;;5.10;1.77;;;30.20;56.30;;;;;;5098166;28;20050;-76
2022/07/14 10:03:44;;;;;;;2.90;1.70;;;30.20;57.20;;;;;;5091816;28;20050;-75
2022/07/14 10:06:11;;;;;;;1.50;1.40;;;30.20;58.00;;;;;;5092224;28;20487;-76
2022/07/14 10:08:43;;;;;;;1.50;1.40;;;30.30;58.50;;;;;;5091166;28;20024;-76
2022/07/14 10:11:13;;;;;;;4.18;1.60;;;30.40;55.20;;;;;;5073002;28;20047;-77
2022/07/14 10:13:39;;;;;;;4.32;1.42;;;30.50;55.60;;;;;;5091469;28;20016;-77
2022/07/14 10:16:06;;;;;;;1.52;1.50;;;30.50;55.50;;;;;;5091731;28;20430;-75
2022/07/14 10:18:33;;;;;;;2.78;1.73;;;30.40;56.10;;;;;;5091047;28;20017;-77
2022/07/14 10:21:01;;;;;;;2.05;1.52;;;30.50;56.00;;;;;;5090982;28;20475;-76
2022/07/14 10:23:29;;;;;;;2.63;1.67;;;30.60;57.30;;;;;;5091149;28;20025;-75
2022/07/14 10:25:57;;;;;;;3.33;1.75;;;30.80;58.10;;;;;;5090936;28;20020;-75
2022/07/14 10:28:23;;;;;;;5.65;1.40;;;30.90;57.10;;;;;;5091611;28;20021;-76
2022/07/14 10:31:23;;;;;;;1.85;1.75;;;31.00;56.00;;;;;;5073049;28;20059;-76
2022/07/14 10:34:26;;;;;;;4.55;1.70;;;30.90;54.30;;;;;;5090326;28;20101;-76
2022/07/14 10:37:00;;;;;;;2.03;1.90;;;30.90;55.50;;;;;;5091013;28;20097;-75
2022/07/14 10:39:38;;;;;;;2.20;1.70;;;30.90;54.60;;;;;;5091496;28;20075;-75
2022/07/14 10:42:27;;;;;;;5.90;2.25;;;30.90;55.00;;;;;;5073183;28;20035;-75
2022/07/14 10:44:53;;;;;;;2.88;2.08;;;31.00;55.10;;;;;;5090534;28;20456;-76
2022/07/14 10:47:20;;;;;;;2.67;1.90;;;31.00;54.60;;;;;;5091414;28;20031;-75
2022/07/14 10:50:04;;;;;;;2.85;1.65;;;31.10;55.60;;;;;;5090385;28;20488;-77
2022/07/14 10:52:32;;;;;;;3.97;1.60;;;31.30;55.10;;;;;;5072924;28;20012;-76
2022/07/14 10:55:21;;;;;;;3.72;1.63;;;31.40;54.50;;;;;;5072330;28;20387;-75
2022/07/14 10:57:59;;;;;;;2.35;1.80;;;31.40;52.80;;;;;;5091188;28;20030;-75
2022/07/14 11:00:47;;;;;;;1.58;1.35;;;31.50;53.30;;;;;;5073123;28;20032;-77
2022/07/14 11:03:43;;;;;;;3.90;1.60;;;31.50;52.50;;;;;;5090269;28;20068;-75
2022/07/14 11:06:09;;;;;;;1.50;1.50;;;31.70;53.90;;;;;;5072622;28;20392;-76
2022/07/14 11:08:39;;;;;;;4.43;1.60;;;31.70;51.60;;;;;;5090190;28;20030;-76
2022/07/14 11:11:08;;;;;;;11.32;1.98;;;31.80;52.90;;;;;;5072563;28;20031;-76
2022/07/14 11:14:00;;;;;;;2.65;1.25;;;31.80;51.90;;;;;;5090624;28;20024;-77
2022/07/14 11:16:44;;;;;;;5.60;1.73;;;31.80;51.00;;;;;;5078951;28;20483;-76
2022/07/14 11:19:28;;;;;;;4.25;1.60;;;31.80;53.20;;;;;;5090036;28;20183;-75
2022/07/14 11:22:10;;;;;;;1.83;1.58;;;31.80;52.40;;;;;;5089854;28;20027;-75
2022/07/14 11:25:10;;;;;;;2.92;1.77;;;32.00;51.70;;;;;;5090175;28;20918;-76
2022/07/14 11:27:38;;;;;;;1.80;1.70;;;31.90;52.00;;;;;;5085543;28;20040;-77
2022/07/14 11:30:25;;;;;;;2.00;1.77;;;32.00;53.20;;;;;;5090235;28;20549;-75
2022/07/14 11:33:08;;;;;;;2.97;1.88;;;32.10;53.60;;;;;;5071151;28;20020;-76
2022/07/14 11:38:40;;;;;;;1.77;1.63;;;32.40;50.70;;;;;;5089909;28;20054;-76
2022/07/14 11:41:12;;;;;;;1.83;1.42;;;32.60;52.80;;;;;;5090400;28;20058;-75
2022/07/14 11:43:43;;;;;;;1.95;1.85;;;32.80;52.00;;;;;;5089988;28;20087;-76
2022/07/14 11:46:14;;;;;;;1.75;1.65;;;32.70;51.80;;;;;;5089524;28;20028;-76
2022/07/14 11:48:44;;;;;;;5.45;1.77;;;32.80;49.70;;;;;;5089348;28;20024;-76
2022/07/14 11:51:18;;;;;;;2.47;2.03;;;32.70;49.30;;;;;;5090089;28;20024;-75
2022/07/14 11:53:44;;;;;;;1.70;1.60;;;32.90;50.80;;;;;;5071637;28;20044;-75
2022/07/14 11:56:11;;;;;;;1.75;1.65;;;33.00;51.10;;;;;;5089434;28;20051;-77
2022/07/14 11:58:39;;;;;;;2.45;2.25;;;33.20;50.70;;;;;;5089256;28;20032;-76
2022/07/14 12:01:07;;;;;;;4.03;2.25;;;33.30;50.00;;;;;;5090108;28;20020;-75
2022/07/14 12:03:34;;;;;;;6.70;2.10;;;33.50;49.60;;;;;;5070555;28;20512;-75
2022/07/14 12:06:00;;;;;;;3.05;2.00;;;33.50;49.20;;;;;;5089094;28;20034;-76
2022/07/14 12:08:36;;;;;;;2.30;2.10;;;33.60;49.50;;;;;;5089962;28;20016;-77
2022/07/14 12:11:11;;;;;;;4.57;1.90;;;33.60;50.10;;;;;;5089605;28;20038;-77
2022/07/14 12:13:53;;;;;;;4.85;1.83;;;33.80;49.70;;;;;;5089022;28;20119;-76
2022/07/14 12:16:23;;;;;;;2.42;1.98;;;33.80;48.20;;;;;;5089754;28;20024;-76
2022/07/14 12:18:55;;;;;;;4.22;1.92;;;33.80;47.70;;;;;;5088968;28;20103;-76
2022/07/14 12:21:34;;;;;;;4.57;1.35;;;33.80;49.50;;;;;;5088847;28;20085;-76
2022/07/14 12:24:02;;;;;;;2.88;1.60;;;34.00;49.40;;;;;;5088482;28;20047;-76
2022/07/14 12:26:28;;;;;;;4.32;1.75;;;34.10;49.20;;;;;;5071243;28;20395;-76
2022/07/14 12:28:56;;;;;;;2.05;1.73;;;34.00;46.80;;;;;;5089023;28;20419;-76
2022/07/14 12:31:23;;;;;;;3.60;1.80;;;33.90;47.80;;;;;;5088549;28;20088;-76
2022/07/14 12:33:52;;;;;;;4.32;1.55;;;33.90;48.60;;;;;;5070948;28;20094;-76
2022/07/14 12:36:23;;;;;;;3.88;1.60;;;33.70;47.30;;;;;;5089132;28;20077;-76
2022/07/14 12:38:49;;;;;;;3.88;1.80;;;33.80;47.20;;;;;;5088486;28;20432;-76
2022/07/14 12:41:20;;;;;;;2.10;2.00;;;33.90;47.60;;;;;;5071206;28;20445;-77
2022/07/14 12:43:46;;;;;;;1.77;1.67;;;34.10;47.00;;;;;;5092955;28;20383;-77
2022/07/14 12:46:18;;;;;;;2.42;1.92;;;34.10;46.90;;;;;;5093348;28;20599;-76
2022/07/14 12:48:49;;;;;;;3.58;2.17;;;34.10;46.50;;;;;;5093603;28;20475;-74
2022/07/14 12:51:21;;;;;;;1.98;1.67;;;34.20;45.80;;;;;;5093241;28;20028;-74
2022/07/14 12:54:05;;;;;;;;;;;34.30;46.00;;;;;;5093677;28;20024;-74
2022/07/14 12:56:54;;;;;;;1.85;1.75;;;34.00;45.90;;;;;;5093458;28;19904;-74
2022/07/14 12:59:35;;;;;;;2.30;1.80;;;34.00;46.50;;;;;;5093200;28;20105;-74
2022/07/14 13:02:08;;;;;;;;;;;34.10;46.70;;;;;;5093512;28;20024;-74
2022/07/14 13:04:45;;;;;;;2.00;1.90;;;34.40;48.20;;;;;;5093379;28;19994;-74
2022/07/14 13:07:25;;;;;;;3.40;1.80;;;34.30;46.80;;;;;;5093224;28;20048;-74